Time,TemperatureF,DewpointF,PressureIn,WindDirection,WindDirectionDegrees,WindSpeedMPH,WindSpeedGustMPH,Humidity,HourlyPrecipIn,Conditions,Clouds,dailyrainin,SoftwareType,DateUTC
2013-06-19 00:13:00,65.4,64.0,29.86,SE,135,0.0,0.0,96,0.00,,,0.00,weatherlink.com 1.10,2013-06-19 04:13:00,
2013-06-19 00:28:00,65.3,64.0,29.87,SE,135,0.0,0.0,96,0.00,,,0.00,weatherlink.com 1.10,2013-06-19 04:28:00,
2013-06-19 00:43:00,65.4,64.0,29.88,SE,135,0.0,0.0,96,0.00,,,0.00,weatherlink.com 1.10,2013-06-19 04:43:00,
2013-06-19 00:58:00,65.4,64.0,29.88,SE,135,0.0,1.0,96,0.00,,,0.00,weatherlink.com 1.10,2013-06-19 04:58:00,
2013-06-19 01:13:00,65.3,64.0,29.89,SE,135,0.0,1.0,96,0.00,,,0.00,weatherlink.com 1.10,2013-06-19 05:13:00,
2013-06-19 01:28:00,65.0,64.0,29.89,SE,134,0.0,0.0,96,0.00,,,0.00,weatherlink.com 1.10,2013-06-19 05:28:00,
2013-06-19 01:43:00,64.5,63.0,29.89,SE,135,0.0,0.0,96,0.00,,,0.00,weatherlink.com 1.10,2013-06-19 05:43:00,
2013-06-19 01:58:00,64.1,63.0,29.89,SE,134,0.0,0.0,96,0.00,,,0.00,weatherlink.com 1.10,2013-06-19 05:58:00,
2013-06-19 02:13:00,64.0,63.0,29.89,SE,134,0.0,0.0,97,0.00,,,0.00,weatherlink.com 1.10,2013-06-19 06:13:00,
2013-06-19 02:28:00,63.7,63.0,29.89,SE,134,0.0,0.0,97,0.00,,,0.00,weatherlink.com 1.10,2013-06-19 06:28:00,
2013-06-19 02:44:00,63.4,63.0,29.90,SE,134,0.0,1.0,97,0.00,,,0.00,weatherlink.com 1.10,2013-06-19 06:44:00,
2013-06-19 02:59:00,63.3,63.0,29.90,SE,135,0.0,0.0,97,0.00,,,0.00,weatherlink.com 1.10,2013-06-19 06:59:00,
2013-06-19 03:14:00,63.1,62.0,29.89,SE,134,0.0,0.0,97,0.00,,,0.00,weatherlink.com 1.10,2013-06-19 07:14:00,
2013-06-19 03:29:00,63.1,62.0,29.88,SE,135,0.0,0.0,97,0.00,,,0.00,weatherlink.com 1.10,2013-06-19 07:29:00,
2013-06-19 03:44:00,62.9,62.0,29.89,SE,135,0.0,0.0,97,0.00,,,0.00,weatherlink.com 1.10,2013-06-19 07:44:00,
2013-06-19 03:59:00,62.7,62.0,29.88,SE,135,0.0,0.0,97,0.00,,,0.00,weatherlink.com 1.10,2013-06-19 07:59:00,
2013-06-19 04:14:00,62.6,62.0,29.89,SE,135,0.0,0.0,97,0.00,,,0.00,weatherlink.com 1.10,2013-06-19 08:14:00,
2013-06-19 04:29:00,62.7,62.0,29.90,SE,135,0.0,0.0,97,0.00,,,0.00,weatherlink.com 1.10,2013-06-19 08:29:00,
2013-06-19 04:44:00,62.8,62.0,29.89,SE,134,0.0,0.0,98,0.00,,,0.00,weatherlink.com 1.10,2013-06-19 08:44:00,
2013-06-19 04:59:00,62.7,62.0,29.90,SE,134,0.0,0.0,97,0.00,,,0.00,weatherlink.com 1.10,2013-06-19 08:59:00,
2013-06-19 05:14:00,62.6,62.0,29.90,SE,135,0.0,0.0,97,0.00,,,0.00,weatherlink.com 1.10,2013-06-19 09:14:00,
2013-06-19 05:29:00,62.7,62.0,29.90,SE,134,0.0,0.0,98,0.00,,,0.00,weatherlink.com 1.10,2013-06-19 09:29:00,
2013-06-19 05:44:00,62.6,62.0,29.91,SE,134,0.0,0.0,97,0.01,,,0.01,weatherlink.com 1.10,2013-06-19 09:44:00,
2013-06-19 05:59:00,62.3,62.0,29.92,SE,134,0.0,0.0,97,0.01,,,0.01,weatherlink.com 1.10,2013-06-19 09:59:00,
2013-06-19 06:14:00,62.1,61.0,29.92,North,360,0.0,0.0,97,0.01,,,0.01,weatherlink.com 1.10,2013-06-19 10:14:00,
2013-06-19 06:29:00,61.8,61.0,29.93,North,5,0.0,1.0,97,0.01,,,0.01,weatherlink.com 1.10,2013-06-19 10:29:00,
2013-06-19 06:44:00,61.5,61.0,29.93,North,360,0.0,0.0,97,0.00,,,0.01,weatherlink.com 1.10,2013-06-19 10:44:00,
2013-06-19 06:59:00,61.1,60.0,29.95,North,355,0.0,0.0,97,0.00,,,0.01,weatherlink.com 1.10,2013-06-19 10:59:00,
2013-06-19 07:14:00,60.9,60.0,29.95,North,355,0.0,0.0,97,0.00,,,0.01,weatherlink.com 1.10,2013-06-19 11:14:00,
2013-06-19 07:29:00,60.8,60.0,29.96,North,355,0.0,1.0,97,0.00,,,0.01,weatherlink.com 1.10,2013-06-19 11:29:00,
2013-06-19 07:44:00,60.8,60.0,29.97,North,355,0.0,0.0,97,0.00,,,0.01,weatherlink.com 1.10,2013-06-19 11:44:00,
2013-06-19 07:59:00,60.9,60.0,29.97,NNW,344,0.0,0.0,97,0.00,,,0.01,weatherlink.com 1.10,2013-06-19 11:59:00,
2013-06-19 08:14:00,60.9,60.0,29.97,NW,315,0.0,2.0,96,0.00,,,0.01,weatherlink.com 1.10,2013-06-19 12:14:00,
2013-06-19 08:29:00,61.0,60.0,29.98,NW,315,0.0,1.0,96,0.00,,,0.01,weatherlink.com 1.10,2013-06-19 12:29:00,
2013-06-19 08:44:00,61.9,61.0,29.99,NW,315,0.0,1.0,96,0.00,,,0.01,weatherlink.com 1.10,2013-06-19 12:44:00,
2013-06-19 08:59:00,62.4,61.0,30.00,NW,315,0.0,1.0,94,0.00,,,0.01,weatherlink.com 1.10,2013-06-19 12:59:00,
2013-06-19 09:14:00,63.4,62.0,30.01,NW,315,0.0,1.0,94,0.00,,,0.01,weatherlink.com 1.10,2013-06-19 13:14:00,
2013-06-19 09:29:00,64.1,62.0,30.02,NW,315,0.0,1.0,92,0.00,,,0.01,weatherlink.com 1.10,2013-06-19 13:29:00,
2013-06-19 09:44:00,64.9,62.0,30.02,NW,315,0.0,2.0,90,0.00,,,0.01,weatherlink.com 1.10,2013-06-19 13:44:00,
2013-06-19 09:59:00,65.6,62.0,30.02,NW,315,0.0,2.0,87,0.00,,,0.01,weatherlink.com 1.10,2013-06-19 13:59:00,
2013-06-19 10:14:00,66.6,63.0,30.03,NW,315,0.0,3.0,87,0.00,,,0.01,weatherlink.com 1.10,2013-06-19 14:14:00,
2013-06-19 10:29:00,67.3,63.0,30.03,NW,314,0.0,0.0,86,0.00,,,0.01,weatherlink.com 1.10,2013-06-19 14:29:00,
2013-06-19 10:44:00,68.8,64.0,30.03,NW,314,0.0,1.0,84,0.00,,,0.01,weatherlink.com 1.10,2013-06-19 14:44:00,
2013-06-19 11:00:00,70.9,64.0,30.03,NNW,337,0.0,1.0,79,0.00,,,0.01,weatherlink.com 1.10,2013-06-19 15:00:00,
2013-06-19 11:15:00,72.4,64.0,30.03,NW,317,0.0,1.0,76,0.00,,,0.01,weatherlink.com 1.10,2013-06-19 15:15:00,
2013-06-19 11:30:00,73.5,64.0,30.03,NW,317,1.0,1.0,71,0.00,,,0.01,weatherlink.com 1.10,2013-06-19 15:30:00,
2013-06-19 11:45:00,73.3,65.0,30.04,NW,308,0.0,2.0,74,0.00,,,0.01,weatherlink.com 1.10,2013-06-19 15:45:00,
2013-06-19 12:00:00,73.3,64.0,30.04,West,260,0.0,3.0,72,0.00,,,0.01,weatherlink.com 1.10,2013-06-19 16:00:00,
2013-06-19 12:15:00,73.7,65.0,30.04,West,260,0.0,1.0,73,0.00,,,0.01,weatherlink.com 1.10,2013-06-19 16:15:00,
2013-06-19 12:30:00,74.5,65.0,30.04,WSW,258,0.0,2.0,72,0.00,,,0.01,weatherlink.com 1.10,2013-06-19 16:30:00,
2013-06-19 12:45:00,74.7,64.0,30.04,WSW,250,0.0,2.0,70,0.00,,,0.01,weatherlink.com 1.10,2013-06-19 16:45:00,
2013-06-19 13:00:00,75.6,64.0,30.04,WSW,252,0.0,1.0,67,0.00,,,0.01,weatherlink.com 1.10,2013-06-19 17:00:00,
2013-06-19 13:15:00,75.9,65.0,30.04,West,277,1.0,2.0,68,0.00,,,0.01,weatherlink.com 1.10,2013-06-19 17:15:00,
2013-06-19 13:30:00,76.5,64.0,30.04,North,355,0.0,2.0,66,0.00,,,0.01,weatherlink.com 1.10,2013-06-19 17:30:00,
2013-06-19 13:45:00,77.5,64.0,30.03,WNW,289,0.0,2.0,64,0.00,,,0.01,weatherlink.com 1.10,2013-06-19 17:45:00,
2013-06-19 14:00:00,77.2,64.0,30.03,WNW,288,0.0,0.0,64,0.00,,,0.01,weatherlink.com 1.10,2013-06-19 18:00:00,
2013-06-19 14:15:00,76.6,63.0,30.04,NW,325,0.0,3.0,64,0.00,,,0.01,weatherlink.com 1.10,2013-06-19 18:15:00,
2013-06-19 14:45:00,79.1,64.0,30.03,South,188,0.0,2.0,61,0.00,,,0.01,weatherlink.com 1.10,2013-06-19 18:45:00,
2013-06-19 15:00:00,79.9,63.0,30.04,SW,233,1.0,2.0,57,0.00,,,0.01,weatherlink.com 1.10,2013-06-19 19:00:00,
2013-06-19 15:16:00,79.1,66.0,30.03,West,261,0.0,1.0,65,0.00,,,0.01,weatherlink.com 1.10,2013-06-19 19:16:00,
2013-06-19 15:31:00,79.5,63.0,30.03,NW,315,0.0,1.0,58,0.00,,,0.01,weatherlink.com 1.10,2013-06-19 19:31:00,
2013-06-19 15:46:00,78.0,62.0,30.03,SSE,159,0.0,4.0,58,0.00,,,0.01,weatherlink.com 1.10,2013-06-19 19:46:00,
2013-06-19 16:01:00,78.7,62.0,30.03,South,182,0.0,2.0,57,0.00,,,0.01,weatherlink.com 1.10,2013-06-19 20:01:00,
2013-06-19 16:16:00,79.8,65.0,30.03,South,176,0.0,2.0,61,0.00,,,0.01,weatherlink.com 1.10,2013-06-19 20:16:00,
2013-06-19 16:31:00,80.6,63.0,30.03,South,176,0.0,0.0,55,0.00,,,0.01,weatherlink.com 1.10,2013-06-19 20:31:00,
2013-06-19 16:46:00,80.9,62.0,30.02,South,175,0.0,1.0,53,0.00,,,0.01,weatherlink.com 1.10,2013-06-19 20:46:00,
2013-06-19 17:01:00,81.2,64.0,30.02,SW,229,0.0,3.0,56,0.00,,,0.01,weatherlink.com 1.10,2013-06-19 21:01:00,
2013-06-19 17:16:00,80.3,63.0,30.02,SW,229,0.0,1.0,56,0.00,,,0.01,weatherlink.com 1.10,2013-06-19 21:16:00,
2013-06-19 17:31:00,79.4,64.0,30.02,SW,229,0.0,0.0,59,0.00,,,0.01,weatherlink.com 1.10,2013-06-19 21:31:00,
2013-06-19 17:46:00,79.5,64.0,30.02,SW,229,0.0,1.0,59,0.00,,,0.01,weatherlink.com 1.10,2013-06-19 21:46:00,
2013-06-19 18:01:00,79.8,63.0,30.02,SSE,163,0.0,1.0,57,0.00,,,0.01,weatherlink.com 1.10,2013-06-19 22:01:00,
2013-06-19 18:16:00,80.5,64.0,30.02,SSE,163,0.0,1.0,57,0.00,,,0.01,weatherlink.com 1.10,2013-06-19 22:16:00,
2013-06-19 18:31:00,80.1,64.0,30.02,SSE,163,0.0,0.0,58,0.00,,,0.01,weatherlink.com 1.10,2013-06-19 22:31:00,
2013-06-19 18:46:00,79.0,63.0,30.03,SSE,163,0.0,1.0,59,0.00,,,0.01,weatherlink.com 1.10,2013-06-19 22:46:00,
2013-06-19 19:01:00,78.7,62.0,30.03,SSE,163,0.0,1.0,57,0.00,,,0.01,weatherlink.com 1.10,2013-06-19 23:01:00,
2013-06-19 19:16:00,79.1,62.0,30.04,SSE,163,0.0,0.0,57,0.00,,,0.01,weatherlink.com 1.10,2013-06-19 23:16:00,
2013-06-19 19:31:00,78.2,63.0,30.04,SSE,163,0.0,0.0,60,0.00,,,0.01,weatherlink.com 1.10,2013-06-19 23:31:00,
2013-06-19 19:46:00,76.7,63.0,30.05,SSE,163,0.0,1.0,63,0.00,,,0.01,weatherlink.com 1.10,2013-06-19 23:46:00,
2013-06-19 20:01:00,76.0,63.0,30.05,SSE,163,0.0,0.0,65,0.00,,,0.01,weatherlink.com 1.10,2013-06-20 00:01:00,
2013-06-19 20:16:00,75.3,63.0,30.05,SSE,163,0.0,0.0,66,0.00,,,0.01,weatherlink.com 1.10,2013-06-20 00:16:00,
2013-06-19 20:31:00,74.3,65.0,30.06,SSE,163,0.0,0.0,72,0.00,,,0.01,weatherlink.com 1.10,2013-06-20 00:31:00,
2013-06-19 20:46:00,73.0,64.0,30.06,SSE,163,0.0,0.0,74,0.00,,,0.01,weatherlink.com 1.10,2013-06-20 00:46:00,
2013-06-19 21:01:00,72.1,64.0,30.07,SSE,163,0.0,0.0,76,0.00,,,0.01,weatherlink.com 1.10,2013-06-20 01:01:00,
2013-06-19 21:16:00,71.1,64.0,30.07,SSE,163,0.0,0.0,77,0.00,,,0.01,weatherlink.com 1.10,2013-06-20 01:16:00,
2013-06-19 21:31:00,70.0,64.0,30.07,SSE,163,0.0,0.0,80,0.00,,,0.01,weatherlink.com 1.10,2013-06-20 01:31:00,
2013-06-19 21:46:00,69.0,63.0,30.08,SSE,163,0.0,0.0,82,0.00,,,0.01,weatherlink.com 1.10,2013-06-20 01:46:00,
2013-06-19 22:01:00,67.9,63.0,30.09,SSE,163,0.0,0.0,83,0.00,,,0.01,weatherlink.com 1.10,2013-06-20 02:01:00,
2013-06-19 22:16:00,67.0,63.0,30.09,SSE,163,0.0,0.0,86,0.00,,,0.01,weatherlink.com 1.10,2013-06-20 02:16:00,
2013-06-19 22:31:00,66.1,62.0,30.09,SSE,163,0.0,0.0,87,0.00,,,0.01,weatherlink.com 1.10,2013-06-20 02:31:00,
2013-06-19 22:46:00,65.2,62.0,30.10,SSE,163,0.0,0.0,89,0.00,,,0.01,weatherlink.com 1.10,2013-06-20 02:46:00,
2013-06-19 23:01:00,64.6,62.0,30.10,SSE,163,0.0,0.0,90,0.00,,,0.01,weatherlink.com 1.10,2013-06-20 03:01:00,
2013-06-19 23:16:00,64.0,61.0,30.11,SSE,163,0.0,0.0,91,0.00,,,0.01,weatherlink.com 1.10,2013-06-20 03:16:00,
2013-06-19 23:31:00,63.4,61.0,30.11,SSE,163,0.0,0.0,92,0.00,,,0.01,weatherlink.com 1.10,2013-06-20 03:31:00,
2013-06-19 23:46:00,63.0,61.0,30.12,SSE,163,0.0,0.0,92,0.00,,,0.01,weatherlink.com 1.10,2013-06-20 03:46:00,